sensor_id;sensor_type;location;lat;lon;timestamp;pressure;altitude;pressure_sealevel;temperature;humidity
74633;BME280;63139;52.018;8.552;2023-03-23T00:02:14;99357.78;;;11.95;75.98
74633;BME280;63139;52.018;8.552;2023-03-23T00:04:41;99361.44;;;11.94;77.58
74633;BME280;63139;52.018;8.552;2023-03-23T00:07:10;99360.03;;;11.92;76.56
74633;BME280;63139;52.018;8.552;2023-03-23T00:09:38;99365.34;;;11.92;77.57
74633;BME280;63139;52.018;8.552;2023-03-23T00:12:07;99363.28;;;11.87;77.97
74633;BME280;63139;52.018;8.552;2023-03-23T00:14:34;99356.97;;;11.82;77.78
74633;BME280;63139;52.018;8.552;2023-03-23T00:17:08;99361.06;;;11.78;78.67
74633;BME280;63139;52.018;8.552;2023-03-23T00:19:36;99364.47;;;11.72;78.45
74633;BME280;63139;52.018;8.552;2023-03-23T00:22:12;99351.63;;;11.68;78.20
74633;BME280;63139;52.018;8.552;2023-03-23T00:24:39;99351.22;;;11.65;78.53
74633;BME280;63139;52.018;8.552;2023-03-23T00:27:05;99347.97;;;11.63;80.62
74633;BME280;63139;52.018;8.552;2023-03-23T00:29:36;99350.19;;;11.59;79.72
74633;BME280;63139;52.018;8.552;2023-03-23T00:32:02;99347.75;;;11.58;79.04
74633;BME280;63139;52.018;8.552;2023-03-23T00:34:31;99334.91;;;11.55;80.30
74633;BME280;63139;52.018;8.552;2023-03-23T00:36:59;99340.22;;;11.55;79.76
74633;BME280;63139;52.018;8.552;2023-03-23T00:39:27;99345.72;;;11.53;79.59
74633;BME280;63139;52.018;8.552;2023-03-23T00:41:55;99345.09;;;11.51;80.14
74633;BME280;63139;52.018;8.552;2023-03-23T00:44:26;99333.03;;;11.49;80.29
74633;BME280;63139;52.018;8.552;2023-03-23T00:46:55;99334.28;;;11.46;81.22
74633;BME280;63139;52.018;8.552;2023-03-23T00:49:24;99324.06;;;11.43;80.72
74633;BME280;63139;52.018;8.552;2023-03-23T00:51:52;99326.09;;;11.41;80.88
74633;BME280;63139;52.018;8.552;2023-03-23T00:54:19;99323.69;;;11.40;80.78
74633;BME280;63139;52.018;8.552;2023-03-23T00:56:49;99326.31;;;11.40;81.27
74633;BME280;63139;52.018;8.552;2023-03-23T00:59:16;99319.38;;;11.39;81.97
74633;BME280;63139;52.018;8.552;2023-03-23T01:01:43;99316.94;;;11.37;81.56
74633;BME280;63139;52.018;8.552;2023-03-23T01:04:12;99304.50;;;11.38;81.34
74633;BME280;63139;52.018;8.552;2023-03-23T01:06:41;99313.28;;;11.38;81.50
74633;BME280;63139;52.018;8.552;2023-03-23T01:09:10;99306.34;;;11.37;80.98
74633;BME280;63139;52.018;8.552;2023-03-23T01:11:40;99312.25;;;11.39;81.27
74633;BME280;63139;52.018;8.552;2023-03-23T01:14:06;99308.78;;;11.39;83.03
74633;BME280;63139;52.018;8.552;2023-03-23T01:16:33;99305.13;;;11.40;81.21
74633;BME280;63139;52.018;8.552;2023-03-23T01:19:00;99298.19;;;11.39;82.47
74633;BME280;63139;52.018;8.552;2023-03-23T01:21:28;99300.03;;;11.38;81.52
74633;BME280;63139;52.018;8.552;2023-03-23T01:23:55;99288.41;;;11.39;81.46
74633;BME280;63139;52.018;8.552;2023-03-23T01:26:24;99284.75;;;11.40;81.07
74633;BME280;63139;52.018;8.552;2023-03-23T01:28:51;99293.28;;;11.42;80.79
74633;BME280;63139;52.018;8.552;2023-03-23T01:31:20;99291.25;;;11.44;80.36
74633;BME280;63139;52.018;8.552;2023-03-23T01:33:48;99294.53;;;11.46;80.37
74633;BME280;63139;52.018;8.552;2023-03-23T01:36:18;99294.09;;;11.49;79.98
74633;BME280;63139;52.018;8.552;2023-03-23T01:38:48;99287.78;;;11.50;80.08
74633;BME280;63139;52.018;8.552;2023-03-23T01:41:17;99293.72;;;11.52;80.44
74633;BME280;63139;52.018;8.552;2023-03-23T01:44:04;99287.38;;;11.53;80.55
74633;BME280;63139;52.018;8.552;2023-03-23T01:46:37;99286.97;;;11.56;79.71
74633;BME280;63139;52.018;8.552;2023-03-23T01:49:06;99284.31;;;11.56;80.11
74633;BME280;63139;52.018;8.552;2023-03-23T01:51:36;99298.19;;;11.58;79.86
74633;BME280;63139;52.018;8.552;2023-03-23T01:54:07;99286.97;;;11.56;80.19
74633;BME280;63139;52.018;8.552;2023-03-23T01:56:40;99281.66;;;11.56;80.00
74633;BME280;63139;52.018;8.552;2023-03-23T01:59:11;99273.94;;;11.55;80.04
74633;BME280;63139;52.018;8.552;2023-03-23T02:01:41;99278.41;;;11.54;80.58
74633;BME280;63139;52.018;8.552;2023-03-23T02:04:11;99275.16;;;11.52;80.46
74633;BME280;63139;52.018;8.552;2023-03-23T02:06:40;99275.34;;;11.51;80.30
74633;BME280;63139;52.018;8.552;2023-03-23T02:09:17;99272.69;;;11.51;80.41
74633;BME280;63139;52.018;8.552;2023-03-23T02:11:46;99284.13;;;11.51;79.96
74633;BME280;63139;52.018;8.552;2023-03-23T02:14:15;99269.44;;;11.49;80.13
74633;BME280;63139;52.018;8.552;2023-03-23T02:16:44;99265.19;;;11.48;80.22
74633;BME280;63139;52.018;8.552;2023-03-23T02:22:33;99261.09;;;11.45;80.61
74633;BME280;63139;52.018;8.552;2023-03-23T02:25:28;99269.22;;;11.44;81.05
74633;BME280;63139;52.018;8.552;2023-03-23T02:28:18;99272.91;;;11.43;80.67
74633;BME280;63139;52.018;8.552;2023-03-23T02:31:09;99264.34;;;11.41;80.65
74633;BME280;63139;52.018;8.552;2023-03-23T02:33:49;99268.03;;;11.40;80.21
74633;BME280;63139;52.018;8.552;2023-03-23T02:36:25;99280.84;;;11.43;80.05
74633;BME280;63139;52.018;8.552;2023-03-23T02:39:00;99267.59;;;11.43;80.92
74633;BME280;63139;52.018;8.552;2023-03-23T02:41:34;99269.03;;;11.45;80.39
74633;BME280;63139;52.018;8.552;2023-03-23T02:44:04;99251.50;;;11.44;80.87
74633;BME280;63139;52.018;8.552;2023-03-23T02:46:32;99220.50;;;11.45;81.00
74633;BME280;63139;52.018;8.552;2023-03-23T02:49:03;99223.38;;;11.43;81.24
74633;BME280;63139;52.018;8.552;2023-03-23T02:51:32;99230.91;;;11.40;80.95
74633;BME280;63139;52.018;8.552;2023-03-23T02:54:02;99207.28;;;11.38;81.54
74633;BME280;63139;52.018;8.552;2023-03-23T02:56:31;99194.84;;;11.32;81.57
74633;BME280;63139;52.018;8.552;2023-03-23T02:59:01;99211.13;;;11.29;80.88
74633;BME280;63139;52.018;8.552;2023-03-23T03:01:50;99215.00;;;11.26;81.50
74633;BME280;63139;52.018;8.552;2023-03-23T03:04:21;99213.78;;;11.22;81.01
74633;BME280;63139;52.018;8.552;2023-03-23T03:06:59;99218.66;;;11.19;80.99
74633;BME280;63139;52.018;8.552;2023-03-23T03:09:33;99205.03;;;11.15;81.28
74633;BME280;63139;52.018;8.552;2023-03-23T03:12:06;99220.09;;;11.15;80.80
74633;BME280;63139;52.018;8.552;2023-03-23T03:14:37;99236.19;;;11.13;80.92
74633;BME280;63139;52.018;8.552;2023-03-23T03:17:10;99214.19;;;11.13;80.61
74633;BME280;63139;52.018;8.552;2023-03-23T03:19:42;99229.25;;;11.12;80.81
74633;BME280;63139;52.018;8.552;2023-03-23T03:22:12;99227.84;;;11.10;80.69
74633;BME280;63139;52.018;8.552;2023-03-23T03:24:41;99224.19;;;11.11;80.59
74633;BME280;63139;52.018;8.552;2023-03-23T03:27:13;99223.13;;;11.12;80.15
74633;BME280;63139;52.018;8.552;2023-03-23T03:29:47;99218.47;;;11.14;80.24
74633;BME280;63139;52.018;8.552;2023-03-23T03:32:18;99202.56;;;11.14;80.10
74633;BME280;63139;52.018;8.552;2023-03-23T03:34:48;99199.72;;;11.15;80.28
74633;BME280;63139;52.018;8.552;2023-03-23T03:37:16;99197.91;;;11.16;79.92
74633;BME280;63139;52.018;8.552;2023-03-23T03:39:45;99197.91;;;11.16;80.20
74633;BME280;63139;52.018;8.552;2023-03-23T03:42:12;99191.38;;;11.18;79.98
74633;BME280;63139;52.018;8.552;2023-03-23T03:44:38;99187.09;;;11.17;80.81
74633;BME280;63139;52.018;8.552;2023-03-23T03:47:05;99190.75;;;11.16;80.10
74633;BME280;63139;52.018;8.552;2023-03-23T03:49:32;99174.44;;;11.13;80.75
74633;BME280;63139;52.018;8.552;2023-03-23T03:52:00;99156.72;;;11.13;80.16
74633;BME280;63139;52.018;8.552;2023-03-23T03:54:36;99151.63;;;11.12;79.96
74633;BME280;63139;52.018;8.552;2023-03-23T03:57:02;99161.63;;;11.10;81.11
74633;BME280;63139;52.018;8.552;2023-03-23T03:59:50;99172.41;;;11.08;80.50
74633;BME280;63139;52.018;8.552;2023-03-23T04:02:40;99184.22;;;11.06;80.44
74633;BME280;63139;52.018;8.552;2023-03-23T04:05:08;99174.88;;;11.03;80.55
74633;BME280;63139;52.018;8.552;2023-03-23T04:07:37;99182.00;;;11.03;80.78
74633;BME280;63139;52.018;8.552;2023-03-23T04:10:06;99174.25;;;11.01;80.42
74633;BME280;63139;52.018;8.552;2023-03-23T04:12:34;99174.44;;;11.00;80.69
74633;BME280;63139;52.018;8.552;2023-03-23T04:15:25;99178.13;;;10.99;80.47
74633;BME280;63139;52.018;8.552;2023-03-23T04:17:52;99177.28;;;10.98;80.45
74633;BME280;63139;52.018;8.552;2023-03-23T04:20:18;99184.03;;;11.01;81.25
74633;BME280;63139;52.018;8.552;2023-03-23T04:22:50;99187.31;;;11.03;80.40
74633;BME280;63139;52.018;8.552;2023-03-23T04:25:18;99186.06;;;11.05;80.44
74633;BME280;63139;52.018;8.552;2023-03-23T04:27:49;99186.69;;;11.07;80.30
74633;BME280;63139;52.018;8.552;2023-03-23T04:30:24;99164.06;;;11.05;80.28
74633;BME280;63139;52.018;8.552;2023-03-23T04:33:08;99167.50;;;11.05;80.39
74633;BME280;63139;52.018;8.552;2023-03-23T04:35:42;99175.47;;;11.05;80.21
74633;BME280;63139;52.018;8.552;2023-03-23T04:38:23;99183.63;;;11.04;80.21
74633;BME280;63139;52.018;8.552;2023-03-23T04:40:58;99175.88;;;11.02;80.65
74633;BME280;63139;52.018;8.552;2023-03-23T04:44:01;99190.75;;;11.03;80.43
74633;BME280;63139;52.018;8.552;2023-03-23T04:46:35;99184.66;;;11.03;80.27
74633;BME280;63139;52.018;8.552;2023-03-23T04:49:07;99195.00;;;11.04;80.31
74633;BME280;63139;52.018;8.552;2023-03-23T04:51:37;99195.00;;;11.04;80.31
74633;BME280;63139;52.018;8.552;2023-03-23T04:54:23;99190.53;;;11.05;80.71
74633;BME280;63139;52.018;8.552;2023-03-23T04:56:54;99195.25;;;11.09;80.39
74633;BME280;63139;52.018;8.552;2023-03-23T04:59:22;99202.56;;;11.14;80.11
74633;BME280;63139;52.018;8.552;2023-03-23T05:02:16;99195.88;;;11.18;79.88
74633;BME280;63139;52.018;8.552;2023-03-23T05:04:45;99194.63;;;11.20;80.05
74633;BME280;63139;52.018;8.552;2023-03-23T05:07:19;99196.88;;;11.23;79.70
74633;BME280;63139;52.018;8.552;2023-03-23T05:09:49;99196.44;;;11.26;79.65
74633;BME280;63139;52.018;8.552;2023-03-23T05:12:20;99199.53;;;11.30;79.24
74633;BME280;63139;52.018;8.552;2023-03-23T05:15:00;99199.72;;;11.35;79.26
74633;BME280;63139;52.018;8.552;2023-03-23T05:17:29;99195.03;;;11.37;78.94
74633;BME280;63139;52.018;8.552;2023-03-23T05:20:01;99201.53;;;11.41;78.86
74633;BME280;63139;52.018;8.552;2023-03-23T05:22:57;99198.50;;;11.44;78.70
74633;BME280;63139;52.018;8.552;2023-03-23T05:25:31;99189.13;;;11.48;78.58
74633;BME280;63139;52.018;8.552;2023-03-23T05:28:03;99191.78;;;11.48;78.42
74633;BME280;63139;52.018;8.552;2023-03-23T05:30:50;99177.47;;;11.49;77.77
74633;BME280;63139;52.018;8.552;2023-03-23T05:33:18;99184.41;;;11.50;77.89
74633;BME280;63139;52.018;8.552;2023-03-23T05:36:15;99174.44;;;11.52;78.13
74633;BME280;63139;52.018;8.552;2023-03-23T05:39:00;99177.28;;;11.51;77.64
74633;BME280;63139;52.018;8.552;2023-03-23T05:41:46;99178.72;;;11.47;77.73
74633;BME280;63139;52.018;8.552;2023-03-23T05:44:13;99174.00;;;11.49;77.79
74633;BME280;63139;52.018;8.552;2023-03-23T05:46:50;99175.66;;;11.50;77.72
74633;BME280;63139;52.018;8.552;2023-03-23T05:49:17;99176.47;;;11.50;77.60
74633;BME280;63139;52.018;8.552;2023-03-23T05:51:46;99171.97;;;11.51;77.58
74633;BME280;63139;52.018;8.552;2023-03-23T05:54:13;99175.66;;;11.50;77.64
74633;BME280;63139;52.018;8.552;2023-03-23T05:56:42;99179.53;;;11.47;77.85
74633;BME280;63139;52.018;8.552;2023-03-23T05:59:21;99177.28;;;11.44;77.71
74633;BME280;63139;52.018;8.552;2023-03-23T06:01:51;99194.00;;;11.45;77.94
74633;BME280;63139;52.018;8.552;2023-03-23T06:04:19;99193.00;;;11.46;77.86
74633;BME280;63139;52.018;8.552;2023-03-23T06:07:00;99202.16;;;11.50;77.92
74633;BME280;63139;52.018;8.552;2023-03-23T06:09:28;99200.94;;;11.52;77.88
74633;BME280;63139;52.018;8.552;2023-03-23T06:12:03;99210.91;;;11.57;77.81
74633;BME280;63139;52.018;8.552;2023-03-23T06:14:46;99204.56;;;11.64;77.66
74633;BME280;63139;52.018;8.552;2023-03-23T06:17:16;99216.00;;;11.78;77.21
74633;BME280;63139;52.018;8.552;2023-03-23T06:19:44;99214.38;;;11.90;76.91
74633;BME280;63139;52.018;8.552;2023-03-23T06:22:14;99204.34;;;11.99;76.66
74633;BME280;63139;52.018;8.552;2023-03-23T06:25:08;99213.13;;;11.99;76.59
74633;BME280;63139;52.018;8.552;2023-03-23T06:27:40;99212.50;;;11.97;76.60
74633;BME280;63139;52.018;8.552;2023-03-23T06:30:10;99215.34;;;11.96;76.22
74633;BME280;63139;52.018;8.552;2023-03-23T06:32:37;99221.28;;;11.98;76.56
74633;BME280;63139;52.018;8.552;2023-03-23T06:35:09;99213.31;;;11.98;76.52
74633;BME280;63139;52.018;8.552;2023-03-23T06:37:55;99216.34;;;12.01;76.48
74633;BME280;63139;52.018;8.552;2023-03-23T06:40:46;99221.84;;;12.13;76.37
74633;BME280;63139;52.018;8.552;2023-03-23T06:43:14;99223.25;;;12.22;75.82
74633;BME280;63139;52.018;8.552;2023-03-23T06:45:59;99225.22;;;12.40;75.28
74633;BME280;63139;52.018;8.552;2023-03-23T06:48:36;99222.50;;;12.53;74.81
74633;BME280;63139;52.018;8.552;2023-03-23T06:51:05;99222.91;;;12.57;74.58
74633;BME280;63139;52.018;8.552;2023-03-23T06:53:34;99228.00;;;12.58;74.63
74633;BME280;63139;52.018;8.552;2023-03-23T06:56:03;99231.88;;;12.56;74.54
74633;BME280;63139;52.018;8.552;2023-03-23T06:58:32;99235.38;;;12.50;74.83
74633;BME280;63139;52.018;8.552;2023-03-23T07:01:00;99230.84;;;12.57;74.67
74633;BME280;63139;52.018;8.552;2023-03-23T07:03:32;99242.00;;;12.72;74.12
74633;BME280;63139;52.018;8.552;2023-03-23T07:05:59;99238.63;;;12.90;73.85
74633;BME280;63139;52.018;8.552;2023-03-23T07:08:30;99243.13;;;12.96;73.65
74633;BME280;63139;52.018;8.552;2023-03-23T07:10:57;99243.13;;;12.96;73.06
74633;BME280;63139;52.018;8.552;2023-03-23T07:13:27;99243.66;;;13.04;73.26
74633;BME280;63139;52.018;8.552;2023-03-23T07:15:58;99248.44;;;13.27;72.41
74633;BME280;63139;52.018;8.552;2023-03-23T07:18:26;99240.59;;;13.39;72.04
74633;BME280;63139;52.018;8.552;2023-03-23T07:20:56;99231.78;;;13.38;72.26
74633;BME280;63139;52.018;8.552;2023-03-23T07:23:29;99240.44;;;13.34;72.22
74633;BME280;63139;52.018;8.552;2023-03-23T07:26:00;99240.25;;;13.53;70.92
74633;BME280;63139;52.018;8.552;2023-03-23T07:28:37;99233.97;;;13.91;70.69
74633;BME280;63139;52.018;8.552;2023-03-23T07:31:17;99235.53;;;14.17;70.04
74633;BME280;63139;52.018;8.552;2023-03-23T07:33:45;99243.94;;;14.32;68.95
74633;BME280;63139;52.018;8.552;2023-03-23T07:36:12;99237.97;;;14.36;69.20
74633;BME280;63139;52.018;8.552;2023-03-23T07:38:39;99232.88;;;14.35;69.07
74633;BME280;63139;52.018;8.552;2023-03-23T07:41:06;99240.22;;;14.40;68.60
74633;BME280;63139;52.018;8.552;2023-03-23T07:43:34;99245.91;;;14.43;68.42
74633;BME280;63139;52.018;8.552;2023-03-23T07:46:10;99251.47;;;14.42;68.40
74633;BME280;63139;52.018;8.552;2023-03-23T07:48:49;99243.69;;;14.58;67.83
74633;BME280;63139;52.018;8.552;2023-03-23T07:51:18;99244.19;;;14.67;67.25
74633;BME280;63139;52.018;8.552;2023-03-23T07:53:48;99245.34;;;14.71;67.75
74633;BME280;63139;52.018;8.552;2023-03-23T07:56:36;99261.50;;;14.58;67.80
74633;BME280;63139;52.018;8.552;2023-03-23T07:59:10;99267.28;;;14.36;68.66
74633;BME280;63139;52.018;8.552;2023-03-23T08:01:39;99263.19;;;14.34;69.19
74633;BME280;63139;52.018;8.552;2023-03-23T08:04:30;99266.38;;;14.24;68.94
74633;BME280;63139;52.018;8.552;2023-03-23T08:07:24;99265.06;;;14.15;68.92
74633;BME280;63139;52.018;8.552;2023-03-23T08:10:00;99270.06;;;14.05;69.35
74633;BME280;63139;52.018;8.552;2023-03-23T08:12:44;99276.47;;;14.16;68.97
74633;BME280;63139;52.018;8.552;2023-03-23T08:15:14;99275.25;;;14.18;68.66
74633;BME280;63139;52.018;8.552;2023-03-23T08:18:01;99266.22;;;14.19;68.52
74633;BME280;63139;52.018;8.552;2023-03-23T08:20:48;99269.13;;;14.36;68.54
74633;BME280;63139;52.018;8.552;2023-03-23T08:23:44;99263.34;;;14.57;67.91
74633;BME280;63139;52.018;8.552;2023-03-23T08:26:28;99268.16;;;14.49;68.20
74633;BME280;63139;52.018;8.552;2023-03-23T08:29:12;99272.59;;;14.36;68.35
74633;BME280;63139;52.018;8.552;2023-03-23T08:31:39;99272.00;;;14.34;68.28
74633;BME280;63139;52.018;8.552;2023-03-23T08:34:18;99272.16;;;14.40;68.23
74633;BME280;63139;52.018;8.552;2023-03-23T08:37:05;99270.31;;;14.40;67.68
74633;BME280;63139;52.018;8.552;2023-03-23T08:39:58;99271.88;;;14.48;67.07
74633;BME280;63139;52.018;8.552;2023-03-23T08:42:43;99269.28;;;14.41;67.39
74633;BME280;63139;52.018;8.552;2023-03-23T08:45:29;99272.81;;;14.35;67.75
74633;BME280;63139;52.018;8.552;2023-03-23T08:48:32;99268.72;;;14.32;67.58
74633;BME280;63139;52.018;8.552;2023-03-23T08:51:18;99267.38;;;14.23;67.34
74633;BME280;63139;52.018;8.552;2023-03-23T08:53:46;99278.13;;;14.35;66.32
74633;BME280;63139;52.018;8.552;2023-03-23T08:56:36;99276.94;;;14.31;66.76
74633;BME280;63139;52.018;8.552;2023-03-23T08:59:21;99271.72;;;14.43;66.49
74633;BME280;63139;52.018;8.552;2023-03-23T09:02:01;99287.75;;;14.36;66.84
74633;BME280;63139;52.018;8.552;2023-03-23T09:04:35;99292.56;;;14.46;66.46
74633;BME280;63139;52.018;8.552;2023-03-23T09:07:23;99290.06;;;14.51;66.19
74633;BME280;63139;52.018;8.552;2023-03-23T09:09:51;99293.56;;;14.51;64.93
74633;BME280;63139;52.018;8.552;2023-03-23T09:12:18;99294.28;;;14.58;65.13
74633;BME280;63139;52.018;8.552;2023-03-23T09:14:45;99292.88;;;14.74;63.54
74633;BME280;63139;52.018;8.552;2023-03-23T09:17:13;99293.50;;;14.88;64.90
74633;BME280;63139;52.018;8.552;2023-03-23T09:19:40;99299.47;;;15.01;63.83
74633;BME280;63139;52.018;8.552;2023-03-23T09:22:07;99294.94;;;15.32;63.51
74633;BME280;63139;52.018;8.552;2023-03-23T09:24:35;99291.44;;;15.61;62.33
74633;BME280;63139;52.018;8.552;2023-03-23T09:27:04;99289.81;;;15.95;61.48
74633;BME280;63139;52.018;8.552;2023-03-23T09:29:30;99302.47;;;16.11;60.83
74633;BME280;63139;52.018;8.552;2023-03-23T09:31:57;99310.25;;;16.24;58.47
74633;BME280;63139;52.018;8.552;2023-03-23T09:34:25;99303.06;;;16.37;60.79
74633;BME280;63139;52.018;8.552;2023-03-23T09:36:54;99307.22;;;16.44;60.46
74633;BME280;63139;52.018;8.552;2023-03-23T09:39:21;99313.84;;;16.42;58.82
74633;BME280;63139;52.018;8.552;2023-03-23T09:41:59;99327.56;;;16.34;58.86
74633;BME280;63139;52.018;8.552;2023-03-23T09:44:38;99333.25;;;16.37;59.86
74633;BME280;63139;52.018;8.552;2023-03-23T09:47:14;99331.72;;;16.18;59.15
74633;BME280;63139;52.018;8.552;2023-03-23T09:49:50;99334.41;;;15.95;60.20
74633;BME280;63139;52.018;8.552;2023-03-23T09:52:18;99333.03;;;15.92;61.40
74633;BME280;63139;52.018;8.552;2023-03-23T09:54:47;99330.09;;;15.70;60.71
74633;BME280;63139;52.018;8.552;2023-03-23T09:57:16;99332.66;;;15.77;60.67
74633;BME280;63139;52.018;8.552;2023-03-23T09:59:52;99327.06;;;15.78;59.11
74633;BME280;63139;52.018;8.552;2023-03-23T10:02:23;99326.94;;;15.62;59.88
74633;BME280;63139;52.018;8.552;2023-03-23T10:04:55;99339.97;;;15.51;59.68
74633;BME280;63139;52.018;8.552;2023-03-23T10:07:25;99338.75;;;15.54;60.31
74633;BME280;63139;52.018;8.552;2023-03-23T10:09:54;99349.81;;;15.69;60.21
74633;BME280;63139;52.018;8.552;2023-03-23T10:12:28;99337.41;;;16.10;58.17
74633;BME280;63139;52.018;8.552;2023-03-23T10:15:03;99339.06;;;16.34;57.33
74633;BME280;63139;52.018;8.552;2023-03-23T10:17:37;99337.78;;;16.37;57.34
74633;BME280;63139;52.018;8.552;2023-03-23T10:20:21;99341.38;;;16.65;56.19
74633;BME280;63139;52.018;8.552;2023-03-23T10:22:59;99327.00;;;16.83;56.46
74633;BME280;63139;52.018;8.552;2023-03-23T10:25:29;99331.69;;;16.76;57.15
74633;BME280;63139;52.018;8.552;2023-03-23T10:28:03;99347.34;;;16.84;55.33
74633;BME280;63139;52.018;8.552;2023-03-23T10:30:36;99324.50;;;17.05;55.09
74633;BME280;63139;52.018;8.552;2023-03-23T10:33:07;99315.19;;;17.07;55.55
74633;BME280;63139;52.018;8.552;2023-03-23T10:35:38;99325.88;;;17.07;55.20
74633;BME280;63139;52.018;8.552;2023-03-23T10:38:12;99326.41;;;17.21;55.19
74633;BME280;63139;52.018;8.552;2023-03-23T10:40:47;99321.72;;;17.28;54.49
74633;BME280;63139;52.018;8.552;2023-03-23T10:43:15;99316.53;;;17.22;53.87
74633;BME280;63139;52.018;8.552;2023-03-23T10:45:44;99322.69;;;17.22;54.75
74633;BME280;63139;52.018;8.552;2023-03-23T10:48:20;99325.16;;;17.40;53.83
74633;BME280;63139;52.018;8.552;2023-03-23T10:50:54;99329.16;;;17.55;53.41
74633;BME280;63139;52.018;8.552;2023-03-23T10:53:24;99335.03;;;17.68;54.28
74633;BME280;63139;52.018;8.552;2023-03-23T10:55:53;99355.06;;;17.37;54.59
74633;BME280;63139;52.018;8.552;2023-03-23T10:58:25;99399.59;;;16.63;54.50
74633;BME280;63139;52.018;8.552;2023-03-23T11:00:56;99410.19;;;15.82;55.56
74633;BME280;63139;52.018;8.552;2023-03-23T11:03:29;99417.06;;;15.41;59.58
74633;BME280;63139;52.018;8.552;2023-03-23T11:06:02;99407.53;;;15.04;61.92
74633;BME280;63139;52.018;8.552;2023-03-23T11:08:32;99409.59;;;14.65;62.56
74633;BME280;63139;52.018;8.552;2023-03-23T11:11:09;99415.06;;;14.52;63.64
74633;BME280;63139;52.018;8.552;2023-03-23T11:13:40;99422.41;;;14.25;65.01
74633;BME280;63139;52.018;8.552;2023-03-23T11:16:10;99423.50;;;13.93;66.09
74633;BME280;63139;52.018;8.552;2023-03-23T11:18:48;99432.56;;;13.85;66.16
74633;BME280;63139;52.018;8.552;2023-03-23T11:21:15;99428.25;;;13.53;68.20
74633;BME280;63139;52.018;8.552;2023-03-23T11:23:43;99426.94;;;13.31;68.93
74633;BME280;63139;52.018;8.552;2023-03-23T11:26:15;99443.19;;;12.96;70.03
74633;BME280;63139;52.018;8.552;2023-03-23T11:28:44;99432.81;;;12.75;70.06
74633;BME280;63139;52.018;8.552;2023-03-23T11:31:14;99433.66;;;12.62;70.69
74633;BME280;63139;52.018;8.552;2023-03-23T11:33:49;99435.09;;;12.71;70.51
74633;BME280;63139;52.018;8.552;2023-03-23T11:36:17;99429.34;;;12.81;70.65
74633;BME280;63139;52.018;8.552;2023-03-23T11:38:45;99444.41;;;12.94;69.59
74633;BME280;63139;52.018;8.552;2023-03-23T11:41:17;99446.41;;;13.05;69.84
74633;BME280;63139;52.018;8.552;2023-03-23T11:43:46;99453.00;;;13.02;70.56
74633;BME280;63139;52.018;8.552;2023-03-23T11:46:22;99456.31;;;12.78;70.88
74633;BME280;63139;52.018;8.552;2023-03-23T11:48:56;99449.59;;;12.62;71.49
74633;BME280;63139;52.018;8.552;2023-03-23T11:51:29;99458.78;;;12.60;72.20
74633;BME280;63139;52.018;8.552;2023-03-23T11:54:00;99452.47;;;12.48;72.24
74633;BME280;63139;52.018;8.552;2023-03-23T11:56:30;99465.53;;;12.49;71.99
74633;BME280;63139;52.018;8.552;2023-03-23T11:59:00;99461.66;;;12.58;71.10
74633;BME280;63139;52.018;8.552;2023-03-23T12:01:41;99461.03;;;12.63;71.74
74633;BME280;63139;52.018;8.552;2023-03-23T12:04:29;99447.56;;;12.64;71.74
74633;BME280;63139;52.018;8.552;2023-03-23T12:09:52;99458.00;;;12.59;71.77
74633;BME280;63139;52.018;8.552;2023-03-23T12:12:25;99457.97;;;12.46;72.08
74633;BME280;63139;52.018;8.552;2023-03-23T12:15:03;99453.09;;;12.36;72.26
74633;BME280;63139;52.018;8.552;2023-03-23T12:17:42;99454.13;;;12.35;72.33
74633;BME280;63139;52.018;8.552;2023-03-23T12:20:22;99450.44;;;12.36;71.41
74633;BME280;63139;52.018;8.552;2023-03-23T12:23:08;99446.97;;;12.36;71.58
74633;BME280;63139;52.018;8.552;2023-03-23T12:25:59;99447.16;;;12.41;72.21
74633;BME280;63139;52.018;8.552;2023-03-23T12:28:35;99447.91;;;12.88;70.80
74633;BME280;63139;52.018;8.552;2023-03-23T12:31:11;99445.06;;;12.89;70.70
74633;BME280;63139;52.018;8.552;2023-03-23T12:33:48;99459.41;;;12.62;70.82
74633;BME280;63139;52.018;8.552;2023-03-23T12:36:24;99455.53;;;12.64;70.14
74633;BME280;63139;52.018;8.552;2023-03-23T12:39:14;99460.81;;;12.77;70.39
74633;BME280;63139;52.018;8.552;2023-03-23T12:41:49;99452.16;;;13.02;69.58
74633;BME280;63139;52.018;8.552;2023-03-23T12:44:23;99447.00;;;13.20;68.88
74633;BME280;63139;52.018;8.552;2023-03-23T12:47:04;99457.06;;;13.11;69.10
74633;BME280;63139;52.018;8.552;2023-03-23T12:49:39;99447.84;;;13.14;69.67
74633;BME280;63139;52.018;8.552;2023-03-23T12:52:13;99431.63;;;13.29;68.97
74633;BME280;63139;52.018;8.552;2023-03-23T12:54:42;99439.19;;;13.38;69.18
74633;BME280;63139;52.018;8.552;2023-03-23T12:57:18;99450.06;;;13.68;68.63
74633;BME280;63139;52.018;8.552;2023-03-23T12:59:49;99455.22;;;13.94;68.69
74633;BME280;63139;52.018;8.552;2023-03-23T13:02:22;99450.22;;;14.05;67.88
74633;BME280;63139;52.018;8.552;2023-03-23T13:04:56;99451.06;;;14.05;68.51
74633;BME280;63139;52.018;8.552;2023-03-23T13:07:28;99447.09;;;14.14;68.48
74633;BME280;63139;52.018;8.552;2023-03-23T13:10:02;99458.41;;;14.34;68.12
74633;BME280;63139;52.018;8.552;2023-03-23T13:12:30;99446.72;;;14.35;68.51
74633;BME280;63139;52.018;8.552;2023-03-23T13:15:04;99452.53;;;14.26;68.41
74633;BME280;63139;52.018;8.552;2023-03-23T13:17:39;99453.28;;;14.33;68.85
74633;BME280;63139;52.018;8.552;2023-03-23T13:20:36;99449.25;;;14.24;69.47
74633;BME280;63139;52.018;8.552;2023-03-23T13:23:10;99448.34;;;14.36;69.81
74633;BME280;63139;52.018;8.552;2023-03-23T13:25:50;99438.06;;;14.65;69.48
74633;BME280;63139;52.018;8.552;2023-03-23T13:28:18;99441.84;;;14.75;68.72
74633;BME280;63139;52.018;8.552;2023-03-23T13:30:59;99428.44;;;14.64;69.30
74633;BME280;63139;52.018;8.552;2023-03-23T13:33:29;99428.59;;;14.69;69.61
74633;BME280;63139;52.018;8.552;2023-03-23T13:36:03;99432.53;;;14.85;69.44
74633;BME280;63139;52.018;8.552;2023-03-23T13:38:33;99435.78;;;14.87;69.91
74633;BME280;63139;52.018;8.552;2023-03-23T13:41:07;99437.22;;;14.89;69.75